Questa, New Mexico
Current Conditions -  °F | °C
As of 5:55 PM on Saturday 22 Nov 2014 (Local Time) from KSKX Reporting Station
Clear Clear  
Wind Chill: 32°   Ceiling: Unl
Heat Index: 39°   Visibility: 10mi
Dew Point: 18°   Wind: 12mph
Humidity: 42%   Direction: 220°SW
Pressure: 29.92"   Gusts: NA
Location:  36.7°N, 105.59°W
Report Text: KSKX 230055Z AUTO 22010KT 10SM CLR 04/M08 A2992 RMK AO1
Loading
Personal Weather Stations






























Interactive Weather Map New forecast layout! Learn more

10-Day Weather Forecast

Advertisements
Track Severe Weather on mobile